Kossuth, Iowa
Current Conditions -  °F | °C
As of 5:53 AM on Thursday 23 Oct 2014 (Local Time) from KBRL Reporting Station
Clear Clear  
Wind Chill: 41°   Ceiling: Unl
Heat Index: 47°   Visibility: 10mi
Dew Point: 41°   Wind: 14mph
Humidity: 80%   Direction: 190°S
Pressure: 30.14"   Gusts: NA
Location:  41.0155°N, 91.1055°W
Report Text: KBRL 231053Z AUTO 19012KT 10SM CLR 08/05 A3014 RMK AO2 SLP207 T00830050
Loading
Personal Weather Stations






























Interactive Weather Map
Tropical Storm Tracking
New forecast layout! Learn more

10-Day Weather Forecast

Advertisements
Track Severe Weather on mobile